createdAt,value
2022-11-14T00:01:35.507Z,101602.91
2022-11-14T00:04:28.257Z,101586.84
2022-11-14T00:07:17.978Z,101629.38
2022-11-14T00:10:06.675Z,101705.06
2022-11-14T00:12:56.594Z,101704.16
2022-11-14T00:15:44.579Z,101670.91
2022-11-14T00:18:33.265Z,101719.16
2022-11-14T00:21:20.278Z,101692.63
2022-11-14T00:24:07.601Z,101642.44
2022-11-14T00:26:54.640Z,101713.69
2022-11-14T00:29:44.772Z,101669.34
2022-11-14T00:32:33.182Z,101703.31
2022-11-14T00:35:21.500Z,101672.41
2022-11-14T00:38:08.933Z,101703.97
2022-11-14T00:40:55.768Z,101675.59
2022-11-14T00:43:44.703Z,101698.44
2022-11-14T00:46:31.841Z,101696.63
2022-11-14T00:49:18.771Z,101645.09
2022-11-14T00:52:07.466Z,101573.84
2022-11-14T00:54:54.342Z,101479.69
2022-11-14T00:57:41.264Z,101672.75
2022-11-14T01:00:28.687Z,101413.63
2022-11-14T01:03:16.085Z,101524.88
2022-11-14T01:06:07.976Z,101658.75
2022-11-14T01:08:56.673Z,101585.66
2022-11-14T01:11:44.055Z,101619.75
2022-11-14T01:14:31.579Z,101651.84
2022-11-14T01:17:18.636Z,101459.84
2022-11-14T01:20:06.595Z,101656.06
2022-11-14T01:22:54.390Z,101523.97
2022-11-14T01:25:44.204Z,101641.25
2022-11-14T01:28:31.606Z,101547.03
2022-11-14T01:31:22.267Z,101617.00
2022-11-14T01:34:10.084Z,101603.25
2022-11-14T01:36:57.391Z,101615.53
2022-11-14T01:39:44.502Z,101605.00
2022-11-14T01:42:32.916Z,101610.50
2022-11-14T01:45:55.749Z,101607.75
2022-11-14T01:48:47.283Z,101588.84
2022-11-14T01:51:38.622Z,101621.31
2022-11-14T01:54:30.547Z,101566.44
2022-11-14T01:57:23.046Z,101588.78
2022-11-14T02:00:14.659Z,101346.03
2022-11-14T02:03:02.690Z,101466.13
2022-11-14T02:05:51.733Z,101498.88
2022-11-14T02:08:39.291Z,101593.78
2022-11-14T02:11:26.733Z,101552.88
2022-11-14T02:14:14.386Z,101545.38
2022-11-14T02:17:28.093Z,101552.56
2022-11-14T02:20:28.687Z,101529.06
2022-11-14T02:23:17.843Z,101561.94
2022-11-14T02:26:05.254Z,101556.56
2022-11-14T02:28:52.492Z,101566.34
2022-11-14T02:31:40.133Z,101559.94
2022-11-14T02:34:27.510Z,101244.44
2022-11-14T02:37:16.448Z,101235.19
2022-11-14T02:40:03.449Z,101448.44
2022-11-14T02:42:50.402Z,101558.97
2022-11-14T02:45:37.659Z,101557.94
2022-11-14T02:48:24.639Z,101276.31
2022-11-14T02:51:11.397Z,101557.22
2022-11-14T02:53:59.898Z,101475.72
2022-11-14T02:56:46.628Z,101537.88
2022-11-14T02:59:33.892Z,101555.53
2022-11-14T03:02:20.650Z,101496.41
2022-11-14T03:05:08.752Z,101379.66
2022-11-14T03:07:56.020Z,101493.81
2022-11-14T03:10:45.315Z,101212.56
2022-11-14T03:13:32.440Z,101457.72
2022-11-14T03:16:19.276Z,101521.66
2022-11-14T03:19:06.886Z,101523.41
2022-11-14T03:21:53.964Z,101509.03
2022-11-14T03:24:40.982Z,101494.69
2022-11-14T03:27:29.414Z,101434.69
2022-11-14T03:30:16.852Z,101523.72
2022-11-14T03:33:03.792Z,101443.00
2022-11-14T03:35:51.593Z,101482.75
2022-11-14T03:38:38.794Z,101355.94
2022-11-14T03:41:26.406Z,101504.19
2022-11-14T03:44:14.959Z,101465.16
2022-11-14T03:47:01.649Z,101264.94
2022-11-14T03:49:48.922Z,101315.63
2022-11-14T03:52:36.282Z,101291.50
2022-11-14T03:55:23.793Z,101491.44
2022-11-14T03:58:10.757Z,101351.72
2022-11-14T04:00:59.818Z,101457.91
2022-11-14T04:03:47.175Z,101500.22
2022-11-14T04:06:34.185Z,101483.03
2022-11-14T04:09:21.402Z,101507.09
2022-11-14T04:12:12.776Z,101209.19
2022-11-14T04:15:02.689Z,101444.31
2022-11-14T04:17:51.259Z,101499.03
2022-11-14T04:20:38.389Z,101361.34
2022-11-14T04:23:25.254Z,101409.50
2022-11-14T04:26:12.384Z,101284.06
2022-11-14T04:28:59.611Z,101457.97
2022-11-14T04:31:46.627Z,101468.53
2022-11-14T04:34:35.202Z,101456.16
2022-11-14T04:37:22.432Z,101469.41
2022-11-14T04:40:11.380Z,101457.31
2022-11-14T04:42:58.586Z,101455.84
2022-11-14T04:45:45.656Z,101439.06
2022-11-14T04:48:33.206Z,101391.13
2022-11-14T04:51:23.839Z,101448.44
2022-11-14T04:54:10.712Z,101445.22
2022-11-14T04:56:57.709Z,101456.88
2022-11-14T04:59:45.008Z,101415.19
2022-11-14T05:02:33.077Z,101357.16
2022-11-14T05:05:20.443Z,101449.94
2022-11-14T05:08:09.036Z,101198.53
2022-11-14T05:10:55.860Z,101277.47
2022-11-14T05:13:43.187Z,101362.78
2022-11-14T05:16:30.214Z,101421.72
2022-11-14T05:19:17.483Z,101239.16
2022-11-14T05:22:04.265Z,101307.84
2022-11-14T05:24:53.350Z,101363.06
2022-11-14T05:27:40.748Z,101347.66
2022-11-14T05:30:29.995Z,101430.19
2022-11-14T05:33:17.164Z,101427.53
2022-11-14T05:36:04.878Z,101248.06
2022-11-14T05:38:52.142Z,101386.59
2022-11-14T05:41:43.081Z,101216.34
2022-11-14T05:44:32.952Z,101245.56
2022-11-14T05:47:19.922Z,101126.56
2022-11-14T05:50:08.745Z,101347.84
2022-11-14T05:52:55.638Z,101411.81
2022-11-14T05:55:42.904Z,101380.63
2022-11-14T05:58:33.018Z,101438.31
2022-11-14T06:01:21.371Z,101231.44
2022-11-14T06:04:09.036Z,101368.34
2022-11-14T06:06:55.947Z,101387.00
2022-11-14T06:09:44.194Z,101196.19
2022-11-14T06:12:33.364Z,101286.56
2022-11-14T06:15:22.454Z,101316.47
2022-11-14T06:18:09.931Z,101387.38
2022-11-14T06:21:01.481Z,101258.56
2022-11-14T06:23:50.026Z,101320.84
2022-11-14T06:26:37.185Z,101436.56
2022-11-14T06:29:24.515Z,101433.25
2022-11-14T06:32:14.730Z,101092.28
2022-11-14T06:35:02.092Z,101442.41
2022-11-14T06:37:49.194Z,101175.63
2022-11-14T06:40:36.730Z,101387.88
2022-11-14T06:43:24.118Z,101323.88
2022-11-14T06:46:14.614Z,101391.50
2022-11-14T06:49:02.814Z,101418.25
2022-11-14T06:51:49.645Z,101326.81
2022-11-14T06:54:36.366Z,101444.22
2022-11-14T06:57:23.391Z,101406.78
2022-11-14T07:00:12.614Z,101431.03
2022-11-14T07:02:59.788Z,101437.88
2022-11-14T07:05:48.752Z,101111.31
2022-11-14T07:08:36.473Z,101406.53
2022-11-14T07:11:29.540Z,101304.19
2022-11-14T07:14:16.715Z,101427.56
2022-11-14T07:17:06.266Z,101255.34
2022-11-14T07:19:53.286Z,101401.88
2022-11-14T07:22:41.902Z,101328.19
2022-11-14T07:25:29.048Z,101430.53
2022-11-14T07:28:16.184Z,101241.94
2022-11-14T07:31:05.161Z,101424.56
2022-11-14T07:33:52.589Z,101279.25
2022-11-14T07:36:39.678Z,101402.09
2022-11-14T07:39:28.150Z,101419.69
2022-11-14T07:42:15.760Z,101381.78
2022-11-14T07:45:02.697Z,101399.25
2022-11-14T07:47:51.967Z,101398.50
2022-11-14T07:50:40.397Z,101337.53
2022-11-14T07:53:28.517Z,101334.06
2022-11-14T07:56:17.938Z,101196.50
2022-11-14T07:59:05.243Z,101358.91
2022-11-14T08:01:52.160Z,101340.59
2022-11-14T08:04:39.227Z,101237.34
2022-11-14T08:07:26.219Z,101417.97
2022-11-14T08:10:14.635Z,101283.13
2022-11-14T08:16:14.190Z,101378.09
2022-11-14T08:19:05.465Z,101291.38
2022-11-14T08:21:52.940Z,101413.44
2022-11-14T08:24:40.276Z,101076.44
2022-11-14T08:27:27.782Z,101327.88
2022-11-14T08:30:17.232Z,101322.25
2022-11-14T08:33:05.349Z,101395.59
2022-11-14T08:35:52.232Z,101390.09
2022-11-14T08:38:39.380Z,101344.34
2022-11-14T08:41:26.345Z,101392.28
2022-11-14T08:44:13.448Z,101351.53
2022-11-14T08:47:03.786Z,101368.28
2022-11-14T08:49:50.799Z,101035.84
2022-11-14T08:52:38.114Z,101314.63
2022-11-14T08:55:24.980Z,101207.59
2022-11-14T08:58:11.772Z,101258.78
2022-11-14T09:01:04.783Z,101288.53
2022-11-14T09:03:58.435Z,101339.69
2022-11-14T09:06:47.496Z,101362.81
2022-11-14T09:09:34.480Z,101363.25
2022-11-14T09:12:21.802Z,101359.13
2022-11-14T09:15:10.054Z,101360.47
2022-11-14T09:17:58.208Z,101350.41
2022-11-14T09:20:46.934Z,101297.09
2022-11-14T09:23:34.154Z,101361.34
2022-11-14T09:26:21.585Z,101318.84
2022-11-14T09:29:11.680Z,101347.16
2022-11-14T09:31:59.300Z,101364.94
2022-11-14T09:34:46.348Z,101165.97
2022-11-14T09:37:34.580Z,101314.75
2022-11-14T09:40:22.069Z,101362.25
2022-11-14T09:43:29.993Z,101363.81
2022-11-14T09:46:24.992Z,101358.28
2022-11-14T09:49:31.151Z,101209.22
2022-11-14T09:52:31.444Z,101173.59
2022-11-14T09:55:22.596Z,101059.13
2022-11-14T09:58:19.785Z,101349.81
2022-11-14T10:01:11.891Z,101060.16
2022-11-14T10:04:09.871Z,101282.94
2022-11-14T10:07:07.101Z,101337.47
2022-11-14T10:10:04.565Z,101355.16
2022-11-14T10:13:04.548Z,101229.75
2022-11-14T10:15:59.382Z,101275.63
2022-11-14T10:19:19.908Z,101339.38
2022-11-14T10:22:24.221Z,101283.34
2022-11-14T10:25:25.370Z,101312.13
2022-11-14T10:28:44.885Z,101276.59
2022-11-14T10:31:45.677Z,101237.44
2022-11-14T10:34:37.630Z,101100.19
2022-11-14T10:37:32.812Z,101255.03
2022-11-14T10:40:24.444Z,101147.72
2022-11-14T10:43:27.303Z,101143.69
2022-11-14T10:46:20.957Z,101234.09
2022-11-14T10:49:19.203Z,101161.41
2022-11-14T10:52:11.887Z,101268.50
2022-11-14T10:55:06.557Z,101145.22
2022-11-14T10:57:53.549Z,101262.66
2022-11-14T11:00:42.151Z,101186.22
2022-11-14T11:03:43.666Z,101126.56
2022-11-14T11:06:31.225Z,101059.78
2022-11-14T11:09:44.774Z,101248.34
2022-11-14T11:12:46.115Z,101222.81
2022-11-14T11:15:43.369Z,101214.22
2022-11-14T11:18:32.643Z,101068.06
2022-11-14T11:21:22.631Z,101079.56
2022-11-14T11:24:10.831Z,101224.97
2022-11-14T11:27:24.992Z,101211.16
2022-11-14T11:30:23.299Z,101209.50
2022-11-14T11:33:26.093Z,101147.88
2022-11-14T11:36:18.874Z,101149.72
2022-11-14T11:39:06.117Z,101164.66
2022-11-14T11:42:12.496Z,101033.63
2022-11-14T11:45:04.082Z,101195.72
2022-11-14T11:47:59.537Z,101190.56
2022-11-14T11:50:49.451Z,101172.09
2022-11-14T11:53:41.177Z,101151.81
2022-11-14T11:56:33.181Z,101170.38
2022-11-14T11:59:33.493Z,100915.38
2022-11-14T12:02:25.119Z,101172.19
2022-11-14T12:05:17.805Z,101083.31
2022-11-14T12:08:15.996Z,101071.91
2022-11-14T12:11:15.717Z,101160.81
2022-11-14T12:14:38.739Z,100983.13
2022-11-14T12:18:05.245Z,101153.78
2022-11-14T12:21:07.521Z,101154.66
2022-11-14T12:24:39.030Z,101153.81
2022-11-14T12:27:44.919Z,100991.13
2022-11-14T12:30:33.875Z,101023.69
2022-11-14T12:33:26.282Z,101152.06
2022-11-14T12:36:14.188Z,101138.84
2022-11-14T12:39:02.641Z,101116.84
2022-11-14T12:41:51.530Z,101150.28
2022-11-14T12:44:40.486Z,101133.56
2022-11-14T12:47:28.621Z,101136.22
2022-11-14T12:50:42.045Z,101056.25
2022-11-14T12:53:43.936Z,101137.97
2022-11-14T12:57:09.866Z,101131.81
2022-11-14T13:00:05.923Z,100849.88
2022-11-14T13:03:24.380Z,101125.66
2022-11-14T13:06:21.083Z,101116.00
2022-11-14T13:09:55.871Z,101126.53
2022-11-14T13:13:16.533Z,100991.22
2022-11-14T13:16:22.592Z,101108.06
2022-11-14T13:19:40.012Z,101097.53
2022-11-14T13:22:43.498Z,101108.97
2022-11-14T13:25:30.612Z,101065.00
2022-11-14T13:28:49.465Z,101071.19
2022-11-14T13:31:50.280Z,101086.09
2022-11-14T13:34:46.229Z,101095.75
2022-11-14T13:37:56.631Z,101043.91
2022-11-14T13:40:55.420Z,101087.00
2022-11-14T13:44:02.548Z,101077.31
2022-11-14T13:47:14.747Z,100926.19
2022-11-14T13:50:10.300Z,100802.44
2022-11-14T13:52:58.255Z,100922.69
2022-11-14T13:56:02.401Z,100894.66
2022-11-14T13:59:32.508Z,101011.44
2022-11-14T14:03:05.222Z,101039.53
2022-11-14T14:06:20.848Z,101012.31
2022-11-14T14:09:24.762Z,101005.28
2022-11-14T14:12:36.062Z,101027.22
2022-11-14T14:15:30.895Z,101015.81
2022-11-14T14:18:32.649Z,100964.81
2022-11-14T14:21:38.521Z,100762.91
2022-11-14T14:24:49.852Z,101041.28
2022-11-14T14:27:56.999Z,101046.56
2022-11-14T14:31:10.791Z,100968.31
2022-11-14T14:33:58.265Z,101034.25
2022-11-14T14:36:52.480Z,101039.53
2022-11-14T14:39:39.642Z,101028.09
2022-11-14T14:42:34.695Z,100985.03
2022-11-14T14:45:24.335Z,101021.97
2022-11-14T14:48:16.979Z,101010.47
2022-11-14T14:51:06.109Z,100986.75
2022-11-14T14:53:54.272Z,100905.03
2022-11-14T14:56:41.189Z,100846.91
2022-11-14T14:59:31.289Z,100966.31
2022-11-14T15:02:20.960Z,100965.25
2022-11-14T15:05:10.325Z,101037.28
2022-11-14T15:08:01.856Z,100995.78
2022-11-14T15:10:49.764Z,100876.97
2022-11-14T15:13:38.738Z,101027.25
2022-11-14T15:16:27.362Z,100884.34
2022-11-14T15:19:22.213Z,100968.53
2022-11-14T15:22:29.129Z,100814.28
2022-11-14T15:25:23.849Z,101010.25
2022-11-14T15:28:21.390Z,100885.97
2022-11-14T15:31:16.577Z,100745.75
2022-11-14T15:34:07.464Z,101019.13
2022-11-14T15:37:24.882Z,101020.69
2022-11-14T15:40:20.263Z,101042.28
2022-11-14T15:43:39.334Z,100968.06
2022-11-14T15:46:43.596Z,101039.25
2022-11-14T15:49:30.787Z,100855.69
2022-11-14T15:52:24.975Z,101021.00
2022-11-14T15:55:18.352Z,100834.78
2022-11-14T15:58:27.121Z,100921.78
2022-11-14T16:01:27.849Z,100936.66
2022-11-14T16:04:20.080Z,101056.22
2022-11-14T16:07:07.252Z,101054.25
2022-11-14T16:09:54.384Z,101027.34
2022-11-14T16:12:45.708Z,100974.78
2022-11-14T16:15:34.996Z,100759.22
2022-11-14T16:18:22.222Z,101037.31
2022-11-14T16:21:17.160Z,100952.69
2022-11-14T16:24:04.914Z,101014.09
2022-11-14T16:26:52.518Z,101008.47
2022-11-14T16:29:41.171Z,101045.59
2022-11-14T16:32:28.686Z,101056.47
2022-11-14T16:35:17.741Z,100902.94
2022-11-14T16:38:04.864Z,100902.28
2022-11-14T16:40:51.925Z,101049.16
2022-11-14T16:43:38.864Z,100852.59
2022-11-14T16:46:27.734Z,101035.34
2022-11-14T16:49:17.246Z,100997.53
2022-11-14T16:52:15.852Z,100999.06
2022-11-14T16:55:03.866Z,101049.88
2022-11-14T16:57:53.927Z,100947.81
2022-11-14T17:00:46.065Z,101041.91
2022-11-14T17:03:34.609Z,100913.72
2022-11-14T17:06:21.729Z,101044.97
2022-11-14T17:09:13.974Z,101080.16
2022-11-14T17:12:01.239Z,101016.63
2022-11-14T17:14:47.980Z,101004.41
2022-11-14T17:17:35.059Z,100993.66
2022-11-14T17:20:23.769Z,101085.59
2022-11-14T17:23:10.895Z,101068.44
2022-11-14T17:26:03.443Z,100928.00
2022-11-14T17:28:50.594Z,100933.25
2022-11-14T17:31:38.930Z,101030.56
2022-11-14T17:34:28.595Z,101067.59
2022-11-14T17:37:18.015Z,101035.25
2022-11-14T17:40:09.079Z,100989.94
2022-11-14T17:43:00.385Z,100911.91
2022-11-14T17:45:56.439Z,100909.84
2022-11-14T17:48:46.100Z,101075.69
2022-11-14T17:51:33.552Z,100890.75
2022-11-14T17:54:22.306Z,100840.63
2022-11-14T17:57:09.897Z,100780.91
2022-11-14T17:59:57.136Z,100842.28
2022-11-14T18:02:44.563Z,101060.59
2022-11-14T18:05:31.501Z,101008.16
2022-11-14T18:08:19.083Z,101033.47
2022-11-14T18:11:11.311Z,101009.56
2022-11-14T18:14:00.747Z,100958.34
2022-11-14T18:17:11.586Z,100819.09
2022-11-14T18:20:00.156Z,100994.38
2022-11-14T18:22:47.325Z,101065.97
2022-11-14T18:25:34.608Z,100803.28
2022-11-14T18:28:23.285Z,100918.47
2022-11-14T18:31:15.292Z,100846.25
2022-11-14T18:37:07.688Z,101032.59
2022-11-14T18:39:54.542Z,101060.19
2022-11-14T18:42:41.495Z,101058.59
2022-11-14T18:45:29.708Z,101043.16
2022-11-14T18:48:16.656Z,101057.97
2022-11-14T18:51:04.663Z,101062.88
2022-11-14T18:53:52.106Z,101064.22
2022-11-14T18:56:39.027Z,101074.66
2022-11-14T18:59:25.638Z,101071.72
2022-11-14T19:02:16.517Z,101059.63
2022-11-14T19:05:03.293Z,101066.69
2022-11-14T19:07:53.121Z,101081.06
2022-11-14T19:10:39.870Z,101079.91
2022-11-14T19:13:26.871Z,101084.31
2022-11-14T19:16:13.800Z,101082.09
2022-11-14T19:19:02.756Z,101080.91
2022-11-14T19:21:50.319Z,101078.63
2022-11-14T19:24:37.158Z,101081.88
2022-11-14T19:27:23.880Z,101072.75
2022-11-14T19:30:12.114Z,101069.00
2022-11-14T19:32:59.155Z,101064.19
2022-11-14T19:35:47.263Z,101057.31
2022-11-14T19:38:34.698Z,101057.63
2022-11-14T19:41:25.260Z,101041.13
2022-11-14T19:44:12.572Z,101053.44
2022-11-14T19:46:59.798Z,101051.16
2022-11-14T19:49:46.884Z,101048.09
2022-11-14T19:52:34.966Z,101024.19
2022-11-14T19:55:21.553Z,101027.97
2022-11-14T19:58:08.646Z,101035.75
2022-11-14T20:01:02.435Z,101031.31
2022-11-14T20:03:52.796Z,101023.78
2022-11-14T20:06:39.694Z,101004.16
2022-11-14T20:09:27.696Z,101021.28
2022-11-14T20:12:14.496Z,101029.13
2022-11-14T20:15:01.387Z,100986.25
2022-11-14T20:17:48.125Z,101018.44
2022-11-14T20:20:35.515Z,101026.94
2022-11-14T20:23:22.340Z,101022.94
2022-11-14T20:26:11.685Z,101019.91
2022-11-14T20:29:00.028Z,101022.69
2022-11-14T20:31:46.534Z,101020.84
2022-11-14T20:34:33.450Z,101019.06
2022-11-14T20:37:20.366Z,101004.09
2022-11-14T20:40:08.796Z,101017.47
2022-11-14T20:42:57.629Z,101002.38
2022-11-14T20:45:55.162Z,101008.78
2022-11-14T20:48:42.819Z,100996.94
2022-11-14T20:51:29.560Z,100974.19
2022-11-14T20:54:16.424Z,100984.88
2022-11-14T20:57:03.427Z,100994.69
2022-11-14T20:59:52.455Z,100993.84
2022-11-14T21:02:39.186Z,100988.56
2022-11-14T21:05:25.981Z,100985.00
2022-11-14T21:08:14.408Z,100992.75
2022-11-14T21:11:04.286Z,100969.81
2022-11-14T21:13:57.277Z,100986.63
2022-11-14T21:16:45.822Z,100978.31
2022-11-14T21:19:32.530Z,100992.72
2022-11-14T21:22:19.664Z,100980.41
2022-11-14T21:25:07.952Z,100992.94
2022-11-14T21:27:54.647Z,100985.09
2022-11-14T21:30:41.503Z,100990.56
2022-11-14T21:33:32.650Z,100983.53
2022-11-14T21:39:27.847Z,100986.59
2022-11-14T21:42:18.373Z,100974.28
2022-11-14T21:45:06.552Z,100991.81
2022-11-14T21:47:53.506Z,100972.59
2022-11-14T21:50:41.433Z,100987.56
2022-11-14T21:53:29.606Z,100978.59
2022-11-14T21:56:18.746Z,100989.91
2022-11-14T21:59:16.884Z,100989.91
2022-11-14T22:02:21.448Z,100969.72
2022-11-14T22:05:09.233Z,100959.16
2022-11-14T22:07:57.665Z,100976.72
2022-11-14T22:10:44.566Z,100977.47
2022-11-14T22:13:32.671Z,100974.03
2022-11-14T22:16:20.760Z,100983.69
2022-11-14T22:19:07.782Z,100995.91
2022-11-14T22:21:54.590Z,100982.44
2022-11-14T22:24:42.907Z,100989.53
2022-11-14T22:27:29.422Z,100977.47
2022-11-14T22:30:17.092Z,100949.28
2022-11-14T22:33:04.667Z,100979.25
2022-11-14T22:35:51.680Z,100968.84
2022-11-14T22:38:39.675Z,100959.97
2022-11-14T22:41:33.065Z,100967.91
2022-11-14T22:44:20.627Z,100972.97
2022-11-14T22:47:09.653Z,100969.59
2022-11-14T22:49:56.537Z,100967.13
2022-11-14T22:52:43.320Z,100967.13
2022-11-14T22:55:30.248Z,100960.94
2022-11-14T22:58:18.512Z,100965.09
2022-11-14T23:01:12.716Z,100958.19
2022-11-14T23:04:02.442Z,100964.38
2022-11-14T23:06:49.262Z,100954.78
2022-11-14T23:09:36.445Z,100962.63
2022-11-14T23:12:23.219Z,100966.97
2022-11-14T23:15:12.018Z,100971.50
2022-11-14T23:18:00.507Z,100958.47
2022-11-14T23:20:47.947Z,100968.06
2022-11-14T23:23:35.513Z,100945.25
2022-11-14T23:26:22.701Z,100965.59
2022-11-14T23:29:12.580Z,100947.94
2022-11-14T23:32:01.100Z,100940.97
2022-11-14T23:34:47.840Z,100951.75
2022-11-14T23:37:35.158Z,100955.25
2022-11-14T23:40:21.780Z,100952.56
2022-11-14T23:43:09.212Z,100950.91
2022-11-14T23:45:56.211Z,100946.72
2022-11-14T23:48:44.749Z,100951.91
2022-11-14T23:51:32.916Z,100951.84
2022-11-14T23:54:19.728Z,100952.50
2022-11-14T23:57:06.786Z,100904.84
2022-11-14T23:59:53.446Z,100955.09
